sensor_id;sensor_type;location;lat;lon;timestamp;P1;durP1;ratioP1;P2;durP2;ratioP2
5688;SDS011;2869;50.432;8.680;2023-03-01T00:01:38;21.93;;;12.87;;
5688;SDS011;2869;50.432;8.680;2023-03-01T00:04:04;20.03;;;13.00;;
5688;SDS011;2869;50.432;8.680;2023-03-01T00:06:31;24.03;;;12.50;;
5688;SDS011;2869;50.432;8.680;2023-03-01T00:08:57;26.83;;;14.03;;
5688;SDS011;2869;50.432;8.680;2023-03-01T00:11:25;22.60;;;14.03;;
5688;SDS011;2869;50.432;8.680;2023-03-01T00:13:55;29.10;;;13.87;;
5688;SDS011;2869;50.432;8.680;2023-03-01T00:16:24;24.83;;;13.47;;
5688;SDS011;2869;50.432;8.680;2023-03-01T00:18:53;25.50;;;14.53;;
5688;SDS011;2869;50.432;8.680;2023-03-01T00:21:20;23.40;;;14.77;;
5688;SDS011;2869;50.432;8.680;2023-03-01T00:23:47;25.93;;;13.03;;
5688;SDS011;2869;50.432;8.680;2023-03-01T00:26:15;20.83;;;13.47;;
5688;SDS011;2869;50.432;8.680;2023-03-01T00:28:42;29.60;;;14.60;;
5688;SDS011;2869;50.432;8.680;2023-03-01T00:31:13;23.80;;;13.30;;
5688;SDS011;2869;50.432;8.680;2023-03-01T00:33:42;26.90;;;13.17;;
5688;SDS011;2869;50.432;8.680;2023-03-01T00:36:09;22.83;;;13.60;;
5688;SDS011;2869;50.432;8.680;2023-03-01T00:38:38;25.63;;;14.40;;
5688;SDS011;2869;50.432;8.680;2023-03-01T00:41:06;24.23;;;13.47;;
5688;SDS011;2869;50.432;8.680;2023-03-01T00:43:34;31.43;;;14.20;;
5688;SDS011;2869;50.432;8.680;2023-03-01T00:46:01;28.03;;;14.50;;
5688;SDS011;2869;50.432;8.680;2023-03-01T00:48:30;26.70;;;15.40;;
5688;SDS011;2869;50.432;8.680;2023-03-01T00:50:57;26.27;;;13.73;;
5688;SDS011;2869;50.432;8.680;2023-03-01T00:53:29;22.60;;;14.20;;
5688;SDS011;2869;50.432;8.680;2023-03-01T00:55:57;23.00;;;14.37;;
5688;SDS011;2869;50.432;8.680;2023-03-01T00:58:24;27.40;;;14.00;;
5688;SDS011;2869;50.432;8.680;2023-03-01T01:00:50;27.40;;;15.20;;
5688;SDS011;2869;50.432;8.680;2023-03-01T01:03:17;25.43;;;14.60;;
5688;SDS011;2869;50.432;8.680;2023-03-01T01:05:45;24.33;;;14.03;;
5688;SDS011;2869;50.432;8.680;2023-03-01T01:08:12;30.93;;;14.80;;
5688;SDS011;2869;50.432;8.680;2023-03-01T01:10:38;26.83;;;14.53;;
5688;SDS011;2869;50.432;8.680;2023-03-01T01:13:05;25.77;;;15.33;;
5688;SDS011;2869;50.432;8.680;2023-03-01T01:15:33;28.30;;;15.27;;
5688;SDS011;2869;50.432;8.680;2023-03-01T01:18:00;25.57;;;14.50;;
5688;SDS011;2869;50.432;8.680;2023-03-01T01:20:27;27.13;;;14.43;;
5688;SDS011;2869;50.432;8.680;2023-03-01T01:22:55;26.00;;;14.10;;
5688;SDS011;2869;50.432;8.680;2023-03-01T01:25:21;31.57;;;15.10;;
5688;SDS011;2869;50.432;8.680;2023-03-01T01:27:49;26.53;;;14.20;;
5688;SDS011;2869;50.432;8.680;2023-03-01T01:30:16;24.37;;;14.43;;
5688;SDS011;2869;50.432;8.680;2023-03-01T01:32:43;26.30;;;14.80;;
5688;SDS011;2869;50.432;8.680;2023-03-01T01:35:10;27.93;;;14.80;;
5688;SDS011;2869;50.432;8.680;2023-03-01T01:37:36;22.90;;;14.10;;
5688;SDS011;2869;50.432;8.680;2023-03-01T01:40:05;24.57;;;15.10;;
5688;SDS011;2869;50.432;8.680;2023-03-01T01:42:32;27.17;;;15.10;;
5688;SDS011;2869;50.432;8.680;2023-03-01T01:47:55;28.27;;;14.30;;
5688;SDS011;2869;50.432;8.680;2023-03-01T01:50:25;27.03;;;15.23;;
5688;SDS011;2869;50.432;8.680;2023-03-01T01:52:52;28.73;;;14.57;;
5688;SDS011;2869;50.432;8.680;2023-03-01T01:55:22;26.67;;;14.60;;
5688;SDS011;2869;50.432;8.680;2023-03-01T01:57:52;27.73;;;14.13;;
5688;SDS011;2869;50.432;8.680;2023-03-01T02:00:23;24.33;;;14.03;;
5688;SDS011;2869;50.432;8.680;2023-03-01T02:02:55;23.80;;;14.13;;
5688;SDS011;2869;50.432;8.680;2023-03-01T02:05:24;31.07;;;15.83;;
5688;SDS011;2869;50.432;8.680;2023-03-01T02:07:57;25.70;;;15.17;;
5688;SDS011;2869;50.432;8.680;2023-03-01T02:10:26;27.07;;;15.40;;
5688;SDS011;2869;50.432;8.680;2023-03-01T02:12:55;26.70;;;14.97;;
5688;SDS011;2869;50.432;8.680;2023-03-01T02:15:22;25.77;;;14.80;;
5688;SDS011;2869;50.432;8.680;2023-03-01T02:17:49;29.10;;;15.20;;
5688;SDS011;2869;50.432;8.680;2023-03-01T02:20:17;28.87;;;15.97;;
5688;SDS011;2869;50.432;8.680;2023-03-01T02:22:50;29.27;;;15.50;;
5688;SDS011;2869;50.432;8.680;2023-03-01T02:25:33;26.50;;;14.90;;
5688;SDS011;2869;50.432;8.680;2023-03-01T02:28:08;26.80;;;15.27;;
5688;SDS011;2869;50.432;8.680;2023-03-01T02:30:38;25.37;;;14.73;;
5688;SDS011;2869;50.432;8.680;2023-03-01T02:33:26;28.43;;;14.73;;
5688;SDS011;2869;50.432;8.680;2023-03-01T02:35:52;30.30;;;16.00;;
5688;SDS011;2869;50.432;8.680;2023-03-01T02:38:20;28.73;;;15.43;;
5688;SDS011;2869;50.432;8.680;2023-03-01T02:40:49;31.10;;;14.07;;
5688;SDS011;2869;50.432;8.680;2023-03-01T02:43:17;26.30;;;14.83;;
5688;SDS011;2869;50.432;8.680;2023-03-01T02:45:50;26.83;;;15.00;;
5688;SDS011;2869;50.432;8.680;2023-03-01T02:48:18;39.53;;;16.43;;
5688;SDS011;2869;50.432;8.680;2023-03-01T02:50:51;28.40;;;15.50;;
5688;SDS011;2869;50.432;8.680;2023-03-01T02:53:32;30.80;;;15.57;;
5688;SDS011;2869;50.432;8.680;2023-03-01T02:56:05;31.30;;;16.23;;
5688;SDS011;2869;50.432;8.680;2023-03-01T02:58:38;28.63;;;15.33;;
5688;SDS011;2869;50.432;8.680;2023-03-01T03:01:11;28.47;;;14.03;;
5688;SDS011;2869;50.432;8.680;2023-03-01T03:03:40;27.60;;;15.30;;
5688;SDS011;2869;50.432;8.680;2023-03-01T03:06:07;30.33;;;15.07;;
5688;SDS011;2869;50.432;8.680;2023-03-01T03:08:34;30.70;;;14.70;;
5688;SDS011;2869;50.432;8.680;2023-03-01T03:11:01;24.90;;;14.17;;
5688;SDS011;2869;50.432;8.680;2023-03-01T03:13:28;42.57;;;15.97;;
5688;SDS011;2869;50.432;8.680;2023-03-01T03:15:55;28.80;;;15.23;;
5688;SDS011;2869;50.432;8.680;2023-03-01T03:18:23;31.03;;;16.20;;
5688;SDS011;2869;50.432;8.680;2023-03-01T03:20:51;27.47;;;14.83;;
5688;SDS011;2869;50.432;8.680;2023-03-01T03:23:19;31.10;;;17.10;;
5688;SDS011;2869;50.432;8.680;2023-03-01T03:25:47;27.33;;;14.97;;
5688;SDS011;2869;50.432;8.680;2023-03-01T03:28:15;28.57;;;15.70;;
5688;SDS011;2869;50.432;8.680;2023-03-01T03:30:41;27.27;;;16.03;;
5688;SDS011;2869;50.432;8.680;2023-03-01T03:33:09;31.50;;;15.50;;
5688;SDS011;2869;50.432;8.680;2023-03-01T03:35:39;29.63;;;15.33;;
5688;SDS011;2869;50.432;8.680;2023-03-01T03:38:08;28.47;;;15.73;;
5688;SDS011;2869;50.432;8.680;2023-03-01T03:40:41;33.33;;;16.20;;
5688;SDS011;2869;50.432;8.680;2023-03-01T03:43:11;28.93;;;15.70;;
5688;SDS011;2869;50.432;8.680;2023-03-01T03:45:40;29.47;;;16.50;;
5688;SDS011;2869;50.432;8.680;2023-03-01T03:48:08;31.77;;;15.87;;
5688;SDS011;2869;50.432;8.680;2023-03-01T03:50:35;30.73;;;16.00;;
5688;SDS011;2869;50.432;8.680;2023-03-01T03:53:04;27.53;;;15.40;;
5688;SDS011;2869;50.432;8.680;2023-03-01T03:55:32;35.37;;;18.17;;
5688;SDS011;2869;50.432;8.680;2023-03-01T03:58:00;34.50;;;15.60;;
5688;SDS011;2869;50.432;8.680;2023-03-01T04:00:31;28.33;;;15.37;;
5688;SDS011;2869;50.432;8.680;2023-03-01T04:02:59;35.43;;;16.23;;
5688;SDS011;2869;50.432;8.680;2023-03-01T04:05:26;30.73;;;15.40;;
5688;SDS011;2869;50.432;8.680;2023-03-01T04:07:53;34.20;;;16.40;;
5688;SDS011;2869;50.432;8.680;2023-03-01T04:10:27;29.67;;;16.00;;
5688;SDS011;2869;50.432;8.680;2023-03-01T04:12:55;28.70;;;15.73;;
5688;SDS011;2869;50.432;8.680;2023-03-01T04:15:22;30.27;;;15.70;;
5688;SDS011;2869;50.432;8.680;2023-03-01T04:17:50;29.90;;;16.23;;
5688;SDS011;2869;50.432;8.680;2023-03-01T04:20:19;30.27;;;16.50;;
5688;SDS011;2869;50.432;8.680;2023-03-01T04:22:50;31.80;;;16.20;;
5688;SDS011;2869;50.432;8.680;2023-03-01T04:25:17;37.40;;;16.93;;
5688;SDS011;2869;50.432;8.680;2023-03-01T04:27:45;27.70;;;15.97;;
5688;SDS011;2869;50.432;8.680;2023-03-01T04:30:12;29.73;;;16.20;;
5688;SDS011;2869;50.432;8.680;2023-03-01T04:32:39;27.57;;;15.27;;
5688;SDS011;2869;50.432;8.680;2023-03-01T04:35:06;31.07;;;15.47;;
5688;SDS011;2869;50.432;8.680;2023-03-01T04:37:33;29.97;;;15.60;;
5688;SDS011;2869;50.432;8.680;2023-03-01T04:40:01;32.90;;;15.83;;
5688;SDS011;2869;50.432;8.680;2023-03-01T04:42:37;26.07;;;14.30;;
5688;SDS011;2869;50.432;8.680;2023-03-01T04:45:06;24.10;;;14.30;;
5688;SDS011;2869;50.432;8.680;2023-03-01T04:47:38;33.53;;;15.50;;
5688;SDS011;2869;50.432;8.680;2023-03-01T04:50:05;29.13;;;15.50;;
5688;SDS011;2869;50.432;8.680;2023-03-01T04:52:32;29.70;;;14.97;;
5688;SDS011;2869;50.432;8.680;2023-03-01T04:54:59;34.80;;;15.17;;
5688;SDS011;2869;50.432;8.680;2023-03-01T04:57:26;27.77;;;15.30;;
5688;SDS011;2869;50.432;8.680;2023-03-01T04:59:52;36.10;;;16.40;;
5688;SDS011;2869;50.432;8.680;2023-03-01T05:02:20;31.27;;;15.40;;
5688;SDS011;2869;50.432;8.680;2023-03-01T05:04:47;27.10;;;16.10;;
5688;SDS011;2869;50.432;8.680;2023-03-01T05:07:14;32.20;;;16.03;;
5688;SDS011;2869;50.432;8.680;2023-03-01T05:09:44;26.30;;;14.10;;
5688;SDS011;2869;50.432;8.680;2023-03-01T05:12:11;30.47;;;16.63;;
5688;SDS011;2869;50.432;8.680;2023-03-01T05:14:38;30.67;;;16.33;;
5688;SDS011;2869;50.432;8.680;2023-03-01T05:17:04;27.93;;;14.77;;
5688;SDS011;2869;50.432;8.680;2023-03-01T05:19:33;30.40;;;16.23;;
5688;SDS011;2869;50.432;8.680;2023-03-01T05:22:00;28.43;;;14.60;;
5688;SDS011;2869;50.432;8.680;2023-03-01T05:24:31;32.03;;;16.27;;
5688;SDS011;2869;50.432;8.680;2023-03-01T05:26:58;29.13;;;15.67;;
5688;SDS011;2869;50.432;8.680;2023-03-01T05:29:26;30.57;;;14.87;;
5688;SDS011;2869;50.432;8.680;2023-03-01T05:31:55;32.07;;;15.83;;
5688;SDS011;2869;50.432;8.680;2023-03-01T05:34:24;29.83;;;15.10;;
5688;SDS011;2869;50.432;8.680;2023-03-01T05:36:52;35.77;;;16.23;;
5688;SDS011;2869;50.432;8.680;2023-03-01T05:39:19;27.47;;;14.83;;
5688;SDS011;2869;50.432;8.680;2023-03-01T05:41:47;29.97;;;14.90;;
5688;SDS011;2869;50.432;8.680;2023-03-01T05:44:14;35.70;;;16.47;;
5688;SDS011;2869;50.432;8.680;2023-03-01T05:46:40;34.77;;;17.07;;
5688;SDS011;2869;50.432;8.680;2023-03-01T05:49:07;29.20;;;15.93;;
5688;SDS011;2869;50.432;8.680;2023-03-01T05:51:34;33.50;;;16.73;;
5688;SDS011;2869;50.432;8.680;2023-03-01T05:54:02;30.73;;;15.57;;
5688;SDS011;2869;50.432;8.680;2023-03-01T05:56:32;33.17;;;15.97;;
5688;SDS011;2869;50.432;8.680;2023-03-01T05:58:59;33.07;;;15.77;;
5688;SDS011;2869;50.432;8.680;2023-03-01T06:01:26;30.60;;;15.40;;
5688;SDS011;2869;50.432;8.680;2023-03-01T06:03:53;30.43;;;16.50;;
5688;SDS011;2869;50.432;8.680;2023-03-01T06:06:19;25.03;;;14.80;;
5688;SDS011;2869;50.432;8.680;2023-03-01T06:08:46;34.53;;;15.90;;
5688;SDS011;2869;50.432;8.680;2023-03-01T06:11:14;31.33;;;16.00;;
5688;SDS011;2869;50.432;8.680;2023-03-01T06:13:41;30.00;;;15.10;;
5688;SDS011;2869;50.432;8.680;2023-03-01T06:16:08;37.80;;;18.00;;
5688;SDS011;2869;50.432;8.680;2023-03-01T06:18:35;39.03;;;17.20;;
5688;SDS011;2869;50.432;8.680;2023-03-01T06:21:02;31.63;;;16.40;;
5688;SDS011;2869;50.432;8.680;2023-03-01T06:23:29;34.77;;;16.53;;
5688;SDS011;2869;50.432;8.680;2023-03-01T06:25:56;34.07;;;14.13;;
5688;SDS011;2869;50.432;8.680;2023-03-01T06:28:24;37.20;;;19.10;;
5688;SDS011;2869;50.432;8.680;2023-03-01T06:30:51;35.73;;;17.70;;
5688;SDS011;2869;50.432;8.680;2023-03-01T06:33:18;28.17;;;16.90;;
5688;SDS011;2869;50.432;8.680;2023-03-01T06:35:46;31.70;;;17.83;;
5688;SDS011;2869;50.432;8.680;2023-03-01T06:38:13;27.70;;;15.67;;
5688;SDS011;2869;50.432;8.680;2023-03-01T06:40:42;25.13;;;15.40;;
5688;SDS011;2869;50.432;8.680;2023-03-01T06:43:08;26.40;;;14.93;;
5688;SDS011;2869;50.432;8.680;2023-03-01T06:45:37;25.70;;;15.60;;
5688;SDS011;2869;50.432;8.680;2023-03-01T06:48:03;33.33;;;16.60;;
5688;SDS011;2869;50.432;8.680;2023-03-01T06:50:31;32.70;;;16.10;;
5688;SDS011;2869;50.432;8.680;2023-03-01T06:52:58;37.97;;;15.90;;
5688;SDS011;2869;50.432;8.680;2023-03-01T06:55:25;29.40;;;15.30;;
5688;SDS011;2869;50.432;8.680;2023-03-01T06:57:53;31.63;;;16.67;;
5688;SDS011;2869;50.432;8.680;2023-03-01T07:00:21;26.77;;;16.50;;
5688;SDS011;2869;50.432;8.680;2023-03-01T07:02:50;33.03;;;15.33;;
5688;SDS011;2869;50.432;8.680;2023-03-01T07:05:17;30.80;;;16.77;;
5688;SDS011;2869;50.432;8.680;2023-03-01T07:07:44;29.37;;;15.97;;
5688;SDS011;2869;50.432;8.680;2023-03-01T07:10:11;36.20;;;18.00;;
5688;SDS011;2869;50.432;8.680;2023-03-01T07:12:38;31.40;;;15.33;;
5688;SDS011;2869;50.432;8.680;2023-03-01T07:15:07;28.90;;;15.80;;
5688;SDS011;2869;50.432;8.680;2023-03-01T07:17:35;29.80;;;15.13;;
5688;SDS011;2869;50.432;8.680;2023-03-01T07:20:03;28.30;;;15.20;;
5688;SDS011;2869;50.432;8.680;2023-03-01T07:22:30;31.63;;;17.43;;
5688;SDS011;2869;50.432;8.680;2023-03-01T07:24:57;28.53;;;16.40;;
5688;SDS011;2869;50.432;8.680;2023-03-01T07:27:24;29.30;;;15.40;;
5688;SDS011;2869;50.432;8.680;2023-03-01T07:29:50;28.77;;;16.00;;
5688;SDS011;2869;50.432;8.680;2023-03-01T07:32:17;31.57;;;15.93;;
5688;SDS011;2869;50.432;8.680;2023-03-01T07:34:44;27.07;;;15.17;;
5688;SDS011;2869;50.432;8.680;2023-03-01T07:37:11;27.47;;;17.10;;
5688;SDS011;2869;50.432;8.680;2023-03-01T07:39:38;33.00;;;15.67;;
5688;SDS011;2869;50.432;8.680;2023-03-01T07:42:05;31.73;;;15.10;;
5688;SDS011;2869;50.432;8.680;2023-03-01T07:44:31;28.77;;;16.03;;
5688;SDS011;2869;50.432;8.680;2023-03-01T07:46:58;28.77;;;16.50;;
5688;SDS011;2869;50.432;8.680;2023-03-01T07:49:25;31.77;;;17.67;;
5688;SDS011;2869;50.432;8.680;2023-03-01T07:51:52;26.60;;;15.40;;
5688;SDS011;2869;50.432;8.680;2023-03-01T07:54:20;27.30;;;15.10;;
5688;SDS011;2869;50.432;8.680;2023-03-01T07:56:46;33.50;;;16.60;;
5688;SDS011;2869;50.432;8.680;2023-03-01T07:59:13;25.63;;;13.57;;
5688;SDS011;2869;50.432;8.680;2023-03-01T08:01:40;30.42;;;17.60;;
5688;SDS011;2869;50.432;8.680;2023-03-01T08:04:07;27.07;;;16.73;;
5688;SDS011;2869;50.432;8.680;2023-03-01T08:06:34;24.40;;;15.10;;
5688;SDS011;2869;50.432;8.680;2023-03-01T08:09:02;27.67;;;16.80;;
5688;SDS011;2869;50.432;8.680;2023-03-01T08:11:30;30.53;;;17.70;;
5688;SDS011;2869;50.432;8.680;2023-03-01T08:13:56;30.17;;;16.50;;
5688;SDS011;2869;50.432;8.680;2023-03-01T08:16:23;25.87;;;16.20;;
5688;SDS011;2869;50.432;8.680;2023-03-01T08:18:50;28.27;;;15.87;;
5688;SDS011;2869;50.432;8.680;2023-03-01T08:21:17;32.40;;;16.93;;
5688;SDS011;2869;50.432;8.680;2023-03-01T08:23:44;27.30;;;15.93;;
5688;SDS011;2869;50.432;8.680;2023-03-01T08:26:11;25.97;;;15.60;;
5688;SDS011;2869;50.432;8.680;2023-03-01T08:28:40;32.27;;;15.73;;
5688;SDS011;2869;50.432;8.680;2023-03-01T08:31:14;26.07;;;15.70;;
5688;SDS011;2869;50.432;8.680;2023-03-01T08:33:42;26.07;;;15.30;;
5688;SDS011;2869;50.432;8.680;2023-03-01T08:36:09;32.47;;;15.87;;
5688;SDS011;2869;50.432;8.680;2023-03-01T08:38:36;23.70;;;14.40;;
5688;SDS011;2869;50.432;8.680;2023-03-01T08:41:02;36.83;;;17.00;;
5688;SDS011;2869;50.432;8.680;2023-03-01T08:43:30;26.03;;;15.50;;
5688;SDS011;2869;50.432;8.680;2023-03-01T08:45:58;23.73;;;13.70;;
5688;SDS011;2869;50.432;8.680;2023-03-01T08:48:27;26.27;;;15.77;;
5688;SDS011;2869;50.432;8.680;2023-03-01T08:50:54;29.50;;;14.90;;
5688;SDS011;2869;50.432;8.680;2023-03-01T08:53:21;27.63;;;15.50;;
5688;SDS011;2869;50.432;8.680;2023-03-01T08:55:47;25.47;;;15.73;;
5688;SDS011;2869;50.432;8.680;2023-03-01T08:58:14;30.30;;;16.17;;
5688;SDS011;2869;50.432;8.680;2023-03-01T09:00:40;25.03;;;14.30;;
5688;SDS011;2869;50.432;8.680;2023-03-01T09:03:08;27.60;;;15.67;;
5688;SDS011;2869;50.432;8.680;2023-03-01T09:05:35;27.40;;;14.90;;
5688;SDS011;2869;50.432;8.680;2023-03-01T09:08:02;26.00;;;15.57;;
5688;SDS011;2869;50.432;8.680;2023-03-01T09:10:29;31.07;;;17.20;;
5688;SDS011;2869;50.432;8.680;2023-03-01T09:12:55;28.00;;;14.53;;
5688;SDS011;2869;50.432;8.680;2023-03-01T09:15:22;27.40;;;15.87;;
5688;SDS011;2869;50.432;8.680;2023-03-01T09:17:48;25.83;;;14.70;;
5688;SDS011;2869;50.432;8.680;2023-03-01T09:20:16;30.33;;;16.00;;
5688;SDS011;2869;50.432;8.680;2023-03-01T09:22:43;23.87;;;14.30;;
5688;SDS011;2869;50.432;8.680;2023-03-01T09:25:10;22.63;;;13.97;;
5688;SDS011;2869;50.432;8.680;2023-03-01T09:27:36;25.60;;;15.10;;
5688;SDS011;2869;50.432;8.680;2023-03-01T09:30:03;23.53;;;14.10;;
5688;SDS011;2869;50.432;8.680;2023-03-01T09:32:31;20.67;;;14.00;;
5688;SDS011;2869;50.432;8.680;2023-03-01T09:34:57;25.30;;;14.17;;
5688;SDS011;2869;50.432;8.680;2023-03-01T09:37:30;22.57;;;13.47;;
5688;SDS011;2869;50.432;8.680;2023-03-01T09:39:58;24.90;;;14.97;;
5688;SDS011;2869;50.432;8.680;2023-03-01T09:42:24;25.37;;;14.90;;
5688;SDS011;2869;50.432;8.680;2023-03-01T09:44:54;24.53;;;14.13;;
5688;SDS011;2869;50.432;8.680;2023-03-01T09:47:27;27.00;;;15.03;;
5688;SDS011;2869;50.432;8.680;2023-03-01T09:49:59;23.77;;;13.73;;
5688;SDS011;2869;50.432;8.680;2023-03-01T09:52:34;23.30;;;14.10;;
5688;SDS011;2869;50.432;8.680;2023-03-01T09:55:08;25.50;;;14.87;;
5688;SDS011;2869;50.432;8.680;2023-03-01T09:57:38;24.25;;;15.18;;
5688;SDS011;2869;50.432;8.680;2023-03-01T10:00:17;22.37;;;14.33;;
5688;SDS011;2869;50.432;8.680;2023-03-01T10:02:51;23.80;;;14.43;;
5688;SDS011;2869;50.432;8.680;2023-03-01T10:05:30;20.33;;;14.00;;
5688;SDS011;2869;50.432;8.680;2023-03-01T10:08:12;22.37;;;13.90;;
5688;SDS011;2869;50.432;8.680;2023-03-01T10:10:54;31.83;;;15.20;;
5688;SDS011;2869;50.432;8.680;2023-03-01T10:13:23;25.13;;;15.27;;
5688;SDS011;2869;50.432;8.680;2023-03-01T10:15:53;20.17;;;13.87;;
5688;SDS011;2869;50.432;8.680;2023-03-01T10:18:24;27.57;;;14.33;;
5688;SDS011;2869;50.432;8.680;2023-03-01T10:20:53;29.57;;;14.13;;
5688;SDS011;2869;50.432;8.680;2023-03-01T10:23:24;22.87;;;15.10;;
5688;SDS011;2869;50.432;8.680;2023-03-01T10:25:59;20.23;;;13.43;;
5688;SDS011;2869;50.432;8.680;2023-03-01T10:28:41;19.57;;;13.47;;
5688;SDS011;2869;50.432;8.680;2023-03-01T10:31:17;22.87;;;14.23;;
5688;SDS011;2869;50.432;8.680;2023-03-01T10:33:48;19.67;;;13.30;;
5688;SDS011;2869;50.432;8.680;2023-03-01T10:36:19;28.60;;;14.80;;
5688;SDS011;2869;50.432;8.680;2023-03-01T10:38:48;20.27;;;12.90;;
5688;SDS011;2869;50.432;8.680;2023-03-01T10:41:17;20.13;;;13.73;;
5688;SDS011;2869;50.432;8.680;2023-03-01T10:43:44;19.33;;;13.37;;
5688;SDS011;2869;50.432;8.680;2023-03-01T10:46:21;19.20;;;13.20;;
5688;SDS011;2869;50.432;8.680;2023-03-01T10:49:00;20.17;;;13.27;;
5688;SDS011;2869;50.432;8.680;2023-03-01T10:51:33;22.40;;;14.20;;
5688;SDS011;2869;50.432;8.680;2023-03-01T10:54:01;21.50;;;13.67;;
5688;SDS011;2869;50.432;8.680;2023-03-01T10:56:29;19.00;;;13.90;;
5688;SDS011;2869;50.432;8.680;2023-03-01T10:59:19;17.83;;;12.43;;
5688;SDS011;2869;50.432;8.680;2023-03-01T11:02:01;20.77;;;13.03;;
5688;SDS011;2869;50.432;8.680;2023-03-01T11:04:30;20.87;;;13.30;;
5688;SDS011;2869;50.432;8.680;2023-03-01T11:07:00;18.97;;;12.70;;
5688;SDS011;2869;50.432;8.680;2023-03-01T11:09:32;17.63;;;12.50;;
5688;SDS011;2869;50.432;8.680;2023-03-01T11:12:03;19.20;;;12.47;;
5688;SDS011;2869;50.432;8.680;2023-03-01T11:14:32;18.87;;;12.20;;
5688;SDS011;2869;50.432;8.680;2023-03-01T11:17:03;19.37;;;12.67;;
5688;SDS011;2869;50.432;8.680;2023-03-01T11:19:31;24.37;;;13.67;;
5688;SDS011;2869;50.432;8.680;2023-03-01T11:22:00;20.10;;;12.70;;
5688;SDS011;2869;50.432;8.680;2023-03-01T11:24:40;19.67;;;11.93;;
5688;SDS011;2869;50.432;8.680;2023-03-01T11:27:16;20.73;;;12.80;;
5688;SDS011;2869;50.432;8.680;2023-03-01T11:29:46;20.17;;;12.67;;
5688;SDS011;2869;50.432;8.680;2023-03-01T11:32:18;18.30;;;12.50;;
5688;SDS011;2869;50.432;8.680;2023-03-01T11:34:50;20.97;;;12.70;;
5688;SDS011;2869;50.432;8.680;2023-03-01T11:37:22;21.40;;;13.20;;
5688;SDS011;2869;50.432;8.680;2023-03-01T11:40:02;19.20;;;12.33;;
5688;SDS011;2869;50.432;8.680;2023-03-01T11:42:48;19.50;;;12.90;;
5688;SDS011;2869;50.432;8.680;2023-03-01T11:45:23;18.90;;;11.87;;
5688;SDS011;2869;50.432;8.680;2023-03-01T11:47:55;18.30;;;11.93;;
5688;SDS011;2869;50.432;8.680;2023-03-01T11:50:34;15.23;;;11.27;;
5688;SDS011;2869;50.432;8.680;2023-03-01T11:53:14;18.03;;;12.37;;
5688;SDS011;2869;50.432;8.680;2023-03-01T11:56:01;17.40;;;11.20;;
5688;SDS011;2869;50.432;8.680;2023-03-01T11:58:37;18.20;;;11.97;;
5688;SDS011;2869;50.432;8.680;2023-03-01T12:01:21;18.13;;;11.60;;
5688;SDS011;2869;50.432;8.680;2023-03-01T12:06:59;15.97;;;11.70;;
5688;SDS011;2869;50.432;8.680;2023-03-01T12:09:38;21.33;;;12.53;;
5688;SDS011;2869;50.432;8.680;2023-03-01T12:12:28;27.23;;;12.37;;
5688;SDS011;2869;50.432;8.680;2023-03-01T12:18:05;15.30;;;10.97;;
5688;SDS011;2869;50.432;8.680;2023-03-01T12:20:46;19.20;;;11.83;;
5688;SDS011;2869;50.432;8.680;2023-03-01T12:23:27;20.07;;;12.70;;
5688;SDS011;2869;50.432;8.680;2023-03-01T12:26:10;16.20;;;11.30;;
5688;SDS011;2869;50.432;8.680;2023-03-01T12:28:48;19.57;;;11.87;;
5688;SDS011;2869;50.432;8.680;2023-03-01T12:31:28;19.45;;;12.65;;
5688;SDS011;2869;50.432;8.680;2023-03-01T12:34:14;18.77;;;12.83;;
5688;SDS011;2869;50.432;8.680;2023-03-01T12:36:59;18.17;;;12.47;;
5688;SDS011;2869;50.432;8.680;2023-03-01T12:39:41;17.27;;;11.63;;
5688;SDS011;2869;50.432;8.680;2023-03-01T12:42:19;22.00;;;12.00;;
5688;SDS011;2869;50.432;8.680;2023-03-01T12:45:00;15.90;;;11.43;;
5688;SDS011;2869;50.432;8.680;2023-03-01T12:47:46;18.23;;;12.17;;
5688;SDS011;2869;50.432;8.680;2023-03-01T12:50:25;15.80;;;12.13;;
5688;SDS011;2869;50.432;8.680;2023-03-01T12:52:56;17.10;;;11.63;;
5688;SDS011;2869;50.432;8.680;2023-03-01T12:55:28;16.30;;;11.50;;
5688;SDS011;2869;50.432;8.680;2023-03-01T12:58:00;18.37;;;12.10;;
5688;SDS011;2869;50.432;8.680;2023-03-01T13:00:32;15.80;;;11.93;;
5688;SDS011;2869;50.432;8.680;2023-03-01T13:03:06;18.07;;;11.60;;
5688;SDS011;2869;50.432;8.680;2023-03-01T13:05:42;19.40;;;12.07;;
5688;SDS011;2869;50.432;8.680;2023-03-01T13:08:25;17.00;;;11.47;;
5688;SDS011;2869;50.432;8.680;2023-03-01T13:11:00;17.30;;;11.27;;
5688;SDS011;2869;50.432;8.680;2023-03-01T13:13:29;17.90;;;12.77;;
5688;SDS011;2869;50.432;8.680;2023-03-01T13:15:57;15.93;;;10.83;;
5688;SDS011;2869;50.432;8.680;2023-03-01T13:19:08;17.20;;;11.20;;
5688;SDS011;2869;50.432;8.680;2023-03-01T13:21:39;17.47;;;11.03;;
5688;SDS011;2869;50.432;8.680;2023-03-01T13:27:08;16.70;;;10.80;;
5688;SDS011;2869;50.432;8.680;2023-03-01T13:29:43;16.83;;;11.10;;
5688;SDS011;2869;50.432;8.680;2023-03-01T13:32:20;14.67;;;11.03;;
5688;SDS011;2869;50.432;8.680;2023-03-01T13:34:52;14.37;;;10.47;;
5688;SDS011;2869;50.432;8.680;2023-03-01T13:43:29;15.10;;;11.50;;
5688;SDS011;2869;50.432;8.680;2023-03-01T13:45:57;13.73;;;10.43;;
5688;SDS011;2869;50.432;8.680;2023-03-01T13:48:27;13.93;;;10.10;;
5688;SDS011;2869;50.432;8.680;2023-03-01T13:50:57;15.40;;;10.50;;
5688;SDS011;2869;50.432;8.680;2023-03-01T13:53:27;16.10;;;10.90;;
5688;SDS011;2869;50.432;8.680;2023-03-01T13:55:58;19.80;;;10.47;;
5688;SDS011;2869;50.432;8.680;2023-03-01T13:58:28;16.67;;;9.80;;
5688;SDS011;2869;50.432;8.680;2023-03-01T14:00:57;18.53;;;11.37;;
5688;SDS011;2869;50.432;8.680;2023-03-01T14:03:27;20.27;;;12.10;;
5688;SDS011;2869;50.432;8.680;2023-03-01T14:06:01;16.43;;;11.20;;
5688;SDS011;2869;50.432;8.680;2023-03-01T14:08:32;17.20;;;11.10;;
5688;SDS011;2869;50.432;8.680;2023-03-01T14:11:09;16.87;;;10.70;;
5688;SDS011;2869;50.432;8.680;2023-03-01T14:14:06;17.40;;;10.83;;
5688;SDS011;2869;50.432;8.680;2023-03-01T14:16:52;16.90;;;9.90;;
5688;SDS011;2869;50.432;8.680;2023-03-01T14:19:26;13.50;;;9.80;;
5688;SDS011;2869;50.432;8.680;2023-03-01T14:22:00;18.23;;;11.00;;
5688;SDS011;2869;50.432;8.680;2023-03-01T14:24:31;21.67;;;12.27;;
5688;SDS011;2869;50.432;8.680;2023-03-01T14:27:01;31.50;;;11.07;;
5688;SDS011;2869;50.432;8.680;2023-03-01T14:29:33;19.67;;;12.60;;
5688;SDS011;2869;50.432;8.680;2023-03-01T14:32:12;22.00;;;11.93;;
5688;SDS011;2869;50.432;8.680;2023-03-01T14:34:47;16.10;;;10.60;;
5688;SDS011;2869;50.432;8.680;2023-03-01T14:37:19;16.15;;;11.20;;
5688;SDS011;2869;50.432;8.680;2023-03-01T14:39:47;18.00;;;11.23;;
5688;SDS011;2869;50.432;8.680;2023-03-01T14:42:15;18.33;;;11.30;;
5688;SDS011;2869;50.432;8.680;2023-03-01T14:44:42;19.30;;;12.23;;
5688;SDS011;2869;50.432;8.680;2023-03-01T14:47:11;19.75;;;10.80;;
5688;SDS011;2869;50.432;8.680;2023-03-01T14:49:39;19.30;;;10.98;;
5688;SDS011;2869;50.432;8.680;2023-03-01T14:52:16;21.13;;;11.40;;
5688;SDS011;2869;50.432;8.680;2023-03-01T14:54:46;17.87;;;11.27;;
5688;SDS011;2869;50.432;8.680;2023-03-01T14:57:15;19.10;;;11.00;;
5688;SDS011;2869;50.432;8.680;2023-03-01T14:59:43;27.77;;;11.67;;
5688;SDS011;2869;50.432;8.680;2023-03-01T15:02:11;29.73;;;11.73;;
5688;SDS011;2869;50.432;8.680;2023-03-01T15:04:42;24.77;;;10.70;;
5688;SDS011;2869;50.432;8.680;2023-03-01T15:07:12;18.53;;;10.13;;
5688;SDS011;2869;50.432;8.680;2023-03-01T15:09:40;18.23;;;11.23;;
5688;SDS011;2869;50.432;8.680;2023-03-01T15:15:20;15.83;;;9.70;;
5688;SDS011;2869;50.432;8.680;2023-03-01T15:18:02;20.10;;;10.40;;
5688;SDS011;2869;50.432;8.680;2023-03-01T15:20:31;15.40;;;9.97;;
5688;SDS011;2869;50.432;8.680;2023-03-01T15:23:02;12.57;;;9.40;;
5688;SDS011;2869;50.432;8.680;2023-03-01T15:25:30;16.13;;;10.00;;
5688;SDS011;2869;50.432;8.680;2023-03-01T15:27:58;16.23;;;10.27;;